createdAt,value
2018-06-22T00:01:24.157Z,1.90
2018-06-22T00:03:51.321Z,1.90
2018-06-22T00:06:18.458Z,1.83
2018-06-22T00:08:45.568Z,2.30
2018-06-22T00:11:12.687Z,2.17
2018-06-22T00:13:39.999Z,2.20
2018-06-22T00:16:07.095Z,2.73
2018-06-22T00:18:34.240Z,2.13
2018-06-22T00:21:01.350Z,2.00
2018-06-22T00:23:28.467Z,2.00
2018-06-22T00:25:55.620Z,2.10
2018-06-22T00:28:22.940Z,2.13
2018-06-22T00:30:50.316Z,2.20
2018-06-22T00:33:17.443Z,1.90
2018-06-22T00:35:44.544Z,2.10
2018-06-22T00:38:11.668Z,2.00
2018-06-22T00:40:38.861Z,1.90
2018-06-22T00:43:05.965Z,2.27
2018-06-22T00:45:33.209Z,2.00
2018-06-22T00:48:00.323Z,2.60
2018-06-22T00:50:27.476Z,2.13
2018-06-22T00:52:54.664Z,2.10
2018-06-22T00:55:21.800Z,1.53
2018-06-22T00:57:48.923Z,2.10
2018-06-22T01:00:16.040Z,2.23
2018-06-22T01:02:43.197Z,2.30
2018-06-22T01:05:10.307Z,2.03
2018-06-22T01:07:37.443Z,2.20
2018-06-22T01:10:04.560Z,2.13
2018-06-22T01:12:31.656Z,2.10
2018-06-22T01:14:58.767Z,2.50
2018-06-22T01:17:25.995Z,2.10
2018-06-22T01:19:53.111Z,2.30
2018-06-22T01:22:20.454Z,2.33
2018-06-22T01:24:47.628Z,2.20
2018-06-22T01:27:14.795Z,2.00
2018-06-22T01:29:41.920Z,2.10
2018-06-22T01:32:09.034Z,2.17
2018-06-22T01:34:36.165Z,2.37
2018-06-22T01:37:03.304Z,2.30
2018-06-22T01:39:30.499Z,1.70
2018-06-22T01:41:57.666Z,1.83
2018-06-22T01:44:24.803Z,2.10
2018-06-22T01:46:51.956Z,2.13
2018-06-22T01:49:19.083Z,2.00
2018-06-22T01:51:46.219Z,1.80
2018-06-22T01:54:13.343Z,1.80
2018-06-22T01:56:40.481Z,2.07
2018-06-22T01:59:07.623Z,2.00
2018-06-22T02:01:35.010Z,2.03
2018-06-22T02:04:02.185Z,2.13
2018-06-22T02:06:29.351Z,2.30
2018-06-22T02:08:56.480Z,1.80
2018-06-22T02:11:23.619Z,2.17
2018-06-22T02:13:50.749Z,2.07
2018-06-22T02:16:17.886Z,2.10
2018-06-22T02:18:45.260Z,2.20
2018-06-22T02:21:12.420Z,2.00
2018-06-22T02:23:39.607Z,2.67
2018-06-22T02:26:06.744Z,1.87
2018-06-22T02:28:33.911Z,2.20
2018-06-22T02:31:01.039Z,2.27
2018-06-22T02:33:28.180Z,2.10
2018-06-22T02:35:55.488Z,1.80
2018-06-22T02:38:22.732Z,2.40
2018-06-22T02:40:49.887Z,2.10
2018-06-22T02:43:17.027Z,2.00
2018-06-22T02:45:44.196Z,2.27
2018-06-22T02:48:11.347Z,2.47
2018-06-22T02:50:38.749Z,2.03
2018-06-22T02:53:05.948Z,2.17
2018-06-22T02:55:33.460Z,1.90
2018-06-22T02:58:00.691Z,2.13
2018-06-22T03:00:27.832Z,2.10
2018-06-22T03:02:54.961Z,1.87
2018-06-22T03:05:22.104Z,2.30
2018-06-22T03:07:49.247Z,2.20
2018-06-22T03:10:16.398Z,2.20
2018-06-22T03:12:43.529Z,2.03
2018-06-22T03:15:10.760Z,1.77
2018-06-22T03:17:37.925Z,2.40
2018-06-22T03:20:05.225Z,2.40
2018-06-22T03:22:32.355Z,2.30
2018-06-22T03:24:59.483Z,2.20
2018-06-22T03:27:26.620Z,2.53
2018-06-22T03:29:53.756Z,2.50
2018-06-22T03:32:20.960Z,2.27
2018-06-22T03:34:48.079Z,2.33
2018-06-22T03:37:15.240Z,2.07
2018-06-22T03:39:42.667Z,1.90
2018-06-22T03:42:09.961Z,2.20
2018-06-22T03:44:37.110Z,2.27
2018-06-22T03:47:04.247Z,2.40
2018-06-22T03:49:31.407Z,2.07
2018-06-22T03:51:58.539Z,2.30
2018-06-22T03:54:26.036Z,2.30
2018-06-22T03:56:53.275Z,2.00
2018-06-22T03:59:20.323Z,2.20
2018-06-22T04:01:47.456Z,2.57
2018-06-22T04:04:14.643Z,2.07
2018-06-22T04:06:41.794Z,2.17
2018-06-22T04:09:08.990Z,2.53
2018-06-22T04:11:36.144Z,1.90
2018-06-22T04:14:03.279Z,2.17
2018-06-22T04:16:30.403Z,1.90
2018-06-22T04:18:57.588Z,1.87
2018-06-22T04:21:24.723Z,1.90
2018-06-22T04:23:51.887Z,2.40
2018-06-22T04:26:19.354Z,2.23
2018-06-22T04:28:46.500Z,2.33
2018-06-22T04:31:13.791Z,2.13
2018-06-22T04:33:40.923Z,2.63
2018-06-22T04:36:08.900Z,2.33
2018-06-22T04:38:36.053Z,2.03
2018-06-22T04:41:03.187Z,2.10
2018-06-22T04:43:30.331Z,2.07
2018-06-22T04:45:57.466Z,2.30
2018-06-22T04:48:24.620Z,2.43
2018-06-22T04:50:51.776Z,2.40
2018-06-22T04:53:18.940Z,2.50
2018-06-22T04:55:46.100Z,2.50
2018-06-22T04:58:13.326Z,2.10
2018-06-22T05:00:40.620Z,2.40
2018-06-22T05:03:07.759Z,3.00
2018-06-22T05:05:34.911Z,2.40
2018-06-22T05:08:02.064Z,2.37
2018-06-22T05:10:29.306Z,2.57
2018-06-22T05:12:56.420Z,2.17
2018-06-22T05:15:23.555Z,2.53
2018-06-22T05:17:50.691Z,2.50
2018-06-22T05:20:17.835Z,2.37
2018-06-22T05:22:45.006Z,2.50
2018-06-22T05:25:12.236Z,2.50
2018-06-22T05:27:39.472Z,2.20
2018-06-22T05:30:06.791Z,2.10
2018-06-22T05:32:34.218Z,1.93
2018-06-22T05:35:03.738Z,2.30
2018-06-22T05:37:32.996Z,2.07
2018-06-22T05:40:00.121Z,2.33
2018-06-22T05:42:27.345Z,2.27
2018-06-22T05:44:54.469Z,2.03
2018-06-22T05:47:21.607Z,2.57
2018-06-22T05:49:48.735Z,2.10
2018-06-22T05:52:15.868Z,2.67
2018-06-22T05:54:43.008Z,2.20
2018-06-22T05:57:10.179Z,2.70
2018-06-22T05:59:37.327Z,2.13
2018-06-22T06:02:04.448Z,2.40
2018-06-22T06:04:31.673Z,2.70
2018-06-22T06:06:58.831Z,2.63
2018-06-22T06:09:25.951Z,2.20
2018-06-22T06:11:53.068Z,1.80
2018-06-22T06:14:20.207Z,2.07
2018-06-22T06:16:47.332Z,2.03
2018-06-22T06:19:14.489Z,1.90
2018-06-22T06:21:41.688Z,2.30
2018-06-22T06:24:08.922Z,2.10
2018-06-22T06:26:36.048Z,2.20
2018-06-22T06:29:03.577Z,2.30
2018-06-22T06:31:30.704Z,2.77
2018-06-22T06:33:57.842Z,2.37
2018-06-22T06:36:25.746Z,2.40
2018-06-22T06:38:52.887Z,2.80
2018-06-22T06:41:20.017Z,2.23
2018-06-22T06:43:47.147Z,2.53
2018-06-22T06:46:14.426Z,2.03
2018-06-22T06:48:41.552Z,2.43
2018-06-22T06:51:08.730Z,2.00
2018-06-22T06:53:35.851Z,2.20
2018-06-22T06:56:03.031Z,2.00
2018-06-22T06:58:30.212Z,3.10
2018-06-22T07:00:57.350Z,1.90
2018-06-22T07:03:24.479Z,2.03
2018-06-22T07:05:51.612Z,1.70
2018-06-22T07:08:18.768Z,2.47
2018-06-22T07:10:46.147Z,2.30
2018-06-22T07:13:13.307Z,2.20
2018-06-22T07:15:41.433Z,2.17
2018-06-22T07:18:09.361Z,2.20
2018-06-22T07:20:36.723Z,2.13
2018-06-22T07:23:03.997Z,2.13
2018-06-22T07:25:31.209Z,2.30
2018-06-22T07:27:58.396Z,2.40
2018-06-22T07:30:25.627Z,2.07
2018-06-22T07:32:52.915Z,2.20
2018-06-22T07:35:20.064Z,2.20
2018-06-22T07:37:47.211Z,2.37
2018-06-22T07:40:14.369Z,2.10
2018-06-22T07:42:41.517Z,2.07
2018-06-22T07:45:08.644Z,2.70
2018-06-22T07:47:35.792Z,2.27
2018-06-22T07:50:02.928Z,2.20
2018-06-22T07:52:30.055Z,2.20
2018-06-22T07:54:57.217Z,2.20
2018-06-22T07:57:24.376Z,2.13
2018-06-22T07:59:51.511Z,2.23
2018-06-22T08:02:18.664Z,2.30
2018-06-22T08:04:45.863Z,2.60
2018-06-22T08:07:12.977Z,2.27
2018-06-22T08:09:40.111Z,2.77
2018-06-22T08:12:07.358Z,2.20
2018-06-22T08:14:34.508Z,2.47
2018-06-22T08:17:01.850Z,2.33
2018-06-22T08:19:28.987Z,2.13
2018-06-22T08:21:56.115Z,2.40
2018-06-22T08:24:23.316Z,2.33
2018-06-22T08:26:50.483Z,2.40
2018-06-22T08:29:17.611Z,2.63
2018-06-22T08:31:44.755Z,2.67
2018-06-22T08:34:11.916Z,2.33
2018-06-22T08:36:39.048Z,2.20
2018-06-22T08:39:06.844Z,2.50
2018-06-22T08:41:34.013Z,2.60
2018-06-22T08:46:27.045Z,2.43
2018-06-22T08:48:54.315Z,2.20
2018-06-22T08:51:21.417Z,2.33
2018-06-22T08:53:48.592Z,2.80
2018-06-22T08:56:15.715Z,2.47
2018-06-22T08:58:43.033Z,2.30
2018-06-22T09:01:10.300Z,2.30
2018-06-22T09:03:37.439Z,2.67
2018-06-22T09:06:04.569Z,2.47
2018-06-22T09:08:31.716Z,2.43
2018-06-22T09:10:58.836Z,2.60
2018-06-22T09:13:26.109Z,2.97
2018-06-22T09:15:53.234Z,2.70
2018-06-22T09:18:20.376Z,3.03
2018-06-22T09:20:47.540Z,2.30
2018-06-22T09:23:14.681Z,2.60
2018-06-22T09:25:41.889Z,3.17
2018-06-22T09:28:09.025Z,3.50
2018-06-22T09:30:36.176Z,3.13
2018-06-22T09:33:03.321Z,2.50
2018-06-22T09:35:30.456Z,2.73
2018-06-22T09:37:57.588Z,2.93
2018-06-22T09:40:24.788Z,3.20
2018-06-22T09:42:52.143Z,2.80
2018-06-22T09:45:19.244Z,3.43
2018-06-22T09:47:46.608Z,2.80
2018-06-22T09:50:13.807Z,2.87
2018-06-22T09:52:40.939Z,2.90
2018-06-22T09:55:08.336Z,2.73
2018-06-22T09:57:35.447Z,2.77
2018-06-22T10:00:02.596Z,2.70
2018-06-22T10:02:29.752Z,3.20
2018-06-22T10:04:56.876Z,3.07
2018-06-22T10:07:24.007Z,2.80
2018-06-22T10:09:51.148Z,3.20
2018-06-22T10:12:18.288Z,2.97
2018-06-22T10:14:45.479Z,3.47
2018-06-22T10:17:12.575Z,3.27
2018-06-22T10:19:39.804Z,3.67
2018-06-22T10:22:06.935Z,2.80
2018-06-22T10:24:34.140Z,3.83
2018-06-22T10:27:01.327Z,3.63
2018-06-22T10:29:28.459Z,3.07
2018-06-22T10:31:55.612Z,3.20
2018-06-22T10:34:22.757Z,3.20
2018-06-22T10:36:49.887Z,3.37
2018-06-22T10:39:17.089Z,3.00
2018-06-22T10:41:44.256Z,3.23
2018-06-22T10:44:11.407Z,2.90
2018-06-22T10:46:38.896Z,3.87
2018-06-22T10:49:06.165Z,3.37
2018-06-22T10:51:33.315Z,3.80
2018-06-22T10:54:00.464Z,3.57
2018-06-22T10:56:27.595Z,3.37
2018-06-22T10:58:54.751Z,3.20
2018-06-22T11:01:21.955Z,3.00
2018-06-22T11:03:49.159Z,3.20
2018-06-22T11:06:16.307Z,3.60
2018-06-22T11:08:43.468Z,3.30
2018-06-22T11:11:10.636Z,3.30
2018-06-22T11:13:37.788Z,3.20
2018-06-22T11:16:05.283Z,3.00
2018-06-22T11:18:32.536Z,3.40
2018-06-22T11:20:59.676Z,3.40
2018-06-22T11:23:26.807Z,3.50
2018-06-22T11:25:53.968Z,3.80
2018-06-22T11:28:21.584Z,3.20
2018-06-22T11:30:48.702Z,3.10
2018-06-22T11:33:15.848Z,2.90
2018-06-22T11:35:43.124Z,2.73
2018-06-22T11:38:10.370Z,2.90
2018-06-22T11:40:37.633Z,2.53
2018-06-22T11:43:04.770Z,2.50
2018-06-22T11:45:31.936Z,2.80
2018-06-22T11:47:59.060Z,2.50
2018-06-22T11:50:26.207Z,2.53
2018-06-22T11:52:53.383Z,2.40
2018-06-22T11:55:20.503Z,2.50
2018-06-22T11:57:47.744Z,2.60
2018-06-22T12:00:14.852Z,2.70
2018-06-22T12:02:42.028Z,2.73
2018-06-22T12:05:09.188Z,2.40
2018-06-22T12:07:36.396Z,2.67
2018-06-22T12:10:03.580Z,2.70
2018-06-22T12:12:30.879Z,2.40
2018-06-22T12:14:58.020Z,2.73
2018-06-22T12:17:25.224Z,2.70
2018-06-22T12:19:52.367Z,3.33
2018-06-22T12:22:19.507Z,3.20
2018-06-22T12:24:46.695Z,2.77
2018-06-22T12:27:13.841Z,3.03
2018-06-22T12:29:41.157Z,2.80
2018-06-22T12:32:08.260Z,2.73
2018-06-22T12:34:35.400Z,2.70
2018-06-22T12:37:02.535Z,2.87
2018-06-22T12:39:29.729Z,3.10
2018-06-22T12:41:56.799Z,2.90
2018-06-22T12:44:23.952Z,2.77
2018-06-22T12:46:51.079Z,2.93
2018-06-22T12:49:18.296Z,2.63
2018-06-22T12:51:45.423Z,2.87
2018-06-22T12:54:12.986Z,3.03
2018-06-22T12:56:40.153Z,2.93
2018-06-22T12:59:07.276Z,2.70
2018-06-22T13:01:34.508Z,2.60
2018-06-22T13:04:01.801Z,2.87
2018-06-22T13:06:28.863Z,2.17
2018-06-22T13:08:55.996Z,2.90
2018-06-22T13:11:23.108Z,2.40
2018-06-22T13:13:50.232Z,2.40
2018-06-22T13:16:17.413Z,2.13
2018-06-22T13:18:44.584Z,2.50
2018-06-22T13:21:11.756Z,2.80
2018-06-22T13:23:38.932Z,2.23
2018-06-22T13:26:06.116Z,2.50
2018-06-22T13:28:33.248Z,1.90
2018-06-22T13:31:00.441Z,2.10
2018-06-22T13:33:27.589Z,2.30
2018-06-22T13:35:54.845Z,1.90
2018-06-22T13:38:22.003Z,2.20
2018-06-22T13:40:49.156Z,2.20
2018-06-22T13:43:16.315Z,2.17
2018-06-22T13:45:43.456Z,2.07
2018-06-22T13:48:10.591Z,2.63
2018-06-22T13:50:38.348Z,2.50
2018-06-22T13:53:05.507Z,2.53
2018-06-22T13:55:32.688Z,2.37
2018-06-22T13:57:59.836Z,2.87
2018-06-22T14:00:26.954Z,2.30
2018-06-22T14:02:54.121Z,2.77
2018-06-22T14:05:26.675Z,2.50
2018-06-22T14:07:53.832Z,3.30
2018-06-22T14:10:21.017Z,2.10
2018-06-22T14:12:48.186Z,2.40
2018-06-22T14:15:21.863Z,2.20
2018-06-22T14:17:49.040Z,2.30
2018-06-22T14:20:16.266Z,2.30
2018-06-22T14:22:43.341Z,2.60
2018-06-22T14:25:10.472Z,2.50
2018-06-22T14:27:37.639Z,2.70
2018-06-22T14:30:04.824Z,2.20
2018-06-22T14:32:31.964Z,2.27
2018-06-22T14:34:59.137Z,2.50
2018-06-22T14:37:26.264Z,2.40
2018-06-22T14:39:53.467Z,2.27
2018-06-22T14:42:20.616Z,2.07
2018-06-22T14:44:47.781Z,1.90
2018-06-22T14:47:15.091Z,2.17
2018-06-22T14:49:42.247Z,2.23
2018-06-22T14:52:09.520Z,2.00
2018-06-22T14:54:42.123Z,2.27
2018-06-22T14:57:14.677Z,2.50
2018-06-22T14:59:47.309Z,1.90
2018-06-22T15:02:19.820Z,2.30
2018-06-22T15:04:52.427Z,2.30
2018-06-22T15:07:25.137Z,2.10
2018-06-22T15:09:52.273Z,2.10
2018-06-22T15:12:19.425Z,2.20
2018-06-22T15:14:46.560Z,1.80
2018-06-22T15:17:14.088Z,2.23
2018-06-22T15:19:43.007Z,1.90
2018-06-22T15:22:11.275Z,1.77
2018-06-22T15:24:38.631Z,2.00
2018-06-22T15:27:06.123Z,1.60
2018-06-22T15:29:33.524Z,2.10
2018-06-22T15:32:01.472Z,1.80
2018-06-22T15:34:34.064Z,1.87
2018-06-22T15:37:06.624Z,1.80
2018-06-22T15:39:39.179Z,2.03
2018-06-22T15:42:11.880Z,1.87
2018-06-22T15:44:44.439Z,1.90
2018-06-22T15:47:17.128Z,1.77
2018-06-22T15:49:49.684Z,1.73
2018-06-22T15:52:22.460Z,1.70
2018-06-22T15:54:58.795Z,1.73
2018-06-22T15:57:26.003Z,1.60
2018-06-22T15:59:53.261Z,1.80
2018-06-22T16:02:26.183Z,1.70
2018-06-22T16:04:53.371Z,1.60
2018-06-22T16:07:20.512Z,1.60
2018-06-22T16:09:53.088Z,1.50
2018-06-22T16:12:25.724Z,1.60
2018-06-22T16:14:58.512Z,1.40
2018-06-22T16:17:31.080Z,1.40
2018-06-22T16:20:03.613Z,1.60
2018-06-22T16:22:36.180Z,1.30
2018-06-22T16:25:08.772Z,1.57
2018-06-22T16:27:39.418Z,1.67
2018-06-22T16:30:06.973Z,1.43
2018-06-22T16:32:34.177Z,1.40
2018-06-22T16:35:01.442Z,1.70
2018-06-22T16:37:28.627Z,1.60
2018-06-22T16:39:55.879Z,1.60
2018-06-22T16:42:22.992Z,1.90
2018-06-22T16:44:50.136Z,1.80
2018-06-22T16:47:17.284Z,1.60
2018-06-22T16:49:44.420Z,1.80
2018-06-22T16:52:11.591Z,1.23
2018-06-22T16:54:38.736Z,2.10
2018-06-22T16:57:06.106Z,2.00
2018-06-22T16:59:33.309Z,1.60
2018-06-22T17:02:00.432Z,1.50
2018-06-22T17:04:27.575Z,1.50
2018-06-22T17:07:00.251Z,1.50
2018-06-22T17:09:32.723Z,1.67
2018-06-22T17:12:05.370Z,1.90
2018-06-22T17:14:37.868Z,1.60
2018-06-22T17:18:09.200Z,1.50
2018-06-22T17:20:36.424Z,1.27
2018-06-22T17:23:03.555Z,1.70
2018-06-22T17:25:30.724Z,1.40
2018-06-22T17:27:57.975Z,1.90
2018-06-22T17:30:25.233Z,2.53
2018-06-22T17:32:52.360Z,1.80
2018-06-22T17:35:19.495Z,1.83
2018-06-22T17:37:46.700Z,2.07
2018-06-22T17:40:13.940Z,2.00
2018-06-22T17:42:41.080Z,1.87
2018-06-22T17:45:08.235Z,2.00
2018-06-22T17:47:35.480Z,1.97
2018-06-22T17:50:33.559Z,1.60
2018-06-22T17:53:00.743Z,1.70
2018-06-22T17:55:28.052Z,1.80
2018-06-22T17:57:55.235Z,1.97
2018-06-22T18:00:27.959Z,2.00
2018-06-22T18:03:00.509Z,1.87
2018-06-22T18:05:33.235Z,1.57
2018-06-22T18:08:00.441Z,1.67
2018-06-22T18:10:32.995Z,2.00
2018-06-22T18:13:00.879Z,1.90
2018-06-22T18:15:28.014Z,2.00
2018-06-22T18:17:55.163Z,1.60
2018-06-22T18:20:22.353Z,2.00
2018-06-22T18:22:52.202Z,2.10
2018-06-22T18:25:19.433Z,1.77
2018-06-22T18:27:46.567Z,1.67
2018-06-22T18:30:15.008Z,1.70
2018-06-22T18:32:42.223Z,1.70
2018-06-22T18:35:11.202Z,1.60
2018-06-22T18:37:38.408Z,1.83
2018-06-22T18:40:05.928Z,2.13
2018-06-22T18:42:33.200Z,2.00
2018-06-22T18:45:00.335Z,1.70
2018-06-22T18:47:27.493Z,2.00
2018-06-22T18:49:54.642Z,2.03
2018-06-22T18:52:27.310Z,2.20
2018-06-22T18:54:59.872Z,2.03
2018-06-22T18:57:32.421Z,2.50
2018-06-22T19:01:02.651Z,1.70
2018-06-22T19:03:35.301Z,2.10
2018-06-22T19:06:02.441Z,2.10
2018-06-22T19:08:29.596Z,2.27
2018-06-22T19:10:56.756Z,1.90
2018-06-22T19:13:23.979Z,1.70
2018-06-22T19:15:51.131Z,2.10
2018-06-22T19:18:18.359Z,2.10
2018-06-22T19:20:45.512Z,2.17
2018-06-22T19:23:12.663Z,2.13
2018-06-22T19:25:39.899Z,1.90
2018-06-22T19:28:07.197Z,1.87
2018-06-22T19:30:34.237Z,1.90
2018-06-22T19:33:01.376Z,2.10
2018-06-22T19:35:28.503Z,1.70
2018-06-22T19:37:55.683Z,2.20
2018-06-22T19:40:22.831Z,1.80
2018-06-22T19:42:49.978Z,2.10
2018-06-22T19:45:22.641Z,2.13
2018-06-22T19:47:55.362Z,2.20
2018-06-22T19:50:27.827Z,1.73
2018-06-22T19:53:00.544Z,2.00
2018-06-22T19:55:27.812Z,2.07
2018-06-22T19:57:55.010Z,1.90
2018-06-22T20:00:22.203Z,1.90
2018-06-22T20:02:49.342Z,2.00
2018-06-22T20:05:16.555Z,1.93
2018-06-22T20:07:43.689Z,1.80
2018-06-22T20:10:10.896Z,2.20
2018-06-22T20:12:38.040Z,2.13
2018-06-22T20:15:05.223Z,2.20
2018-06-22T20:17:32.518Z,2.20
2018-06-22T20:20:01.294Z,1.80
2018-06-22T20:22:28.492Z,2.10
2018-06-22T20:25:01.212Z,1.97
2018-06-22T20:27:28.327Z,2.17
2018-06-22T20:29:55.554Z,2.00
2018-06-22T20:32:22.748Z,2.07
2018-06-22T20:34:55.505Z,2.10
2018-06-22T20:37:28.092Z,2.20
2018-06-22T20:40:00.611Z,2.00
2018-06-22T20:42:33.105Z,2.50
2018-06-22T20:45:05.526Z,2.13
2018-06-22T20:47:38.235Z,2.10
2018-06-22T20:50:11.070Z,2.17
2018-06-22T20:52:38.636Z,2.27
2018-06-22T20:55:05.784Z,1.87
2018-06-22T20:57:34.612Z,2.30
2018-06-22T21:00:01.902Z,2.40
2018-06-22T21:02:29.137Z,2.37
2018-06-22T21:04:56.476Z,2.30
2018-06-22T21:07:23.649Z,2.27
2018-06-22T21:09:50.855Z,2.47
2018-06-22T21:12:26.252Z,1.87
2018-06-22T21:14:45.295Z,2.37
2018-06-22T21:17:12.419Z,2.10
2018-06-22T21:19:39.690Z,2.70
2018-06-22T21:22:11.255Z,2.57
2018-06-22T21:24:40.887Z,2.50
2018-06-22T21:27:13.678Z,2.47
2018-06-22T21:29:46.284Z,2.60
2018-06-22T21:32:18.991Z,2.40
2018-06-22T21:34:51.626Z,2.20
2018-06-22T21:37:24.305Z,3.10
2018-06-22T21:39:51.669Z,2.30
2018-06-22T21:42:19.563Z,2.63
2018-06-22T21:44:46.894Z,2.47
2018-06-22T21:47:14.515Z,2.50
2018-06-22T21:49:41.996Z,2.90
2018-06-22T21:52:09.766Z,2.77
2018-06-22T21:54:36.939Z,2.70
2018-06-22T21:57:04.407Z,2.53
2018-06-22T21:59:32.516Z,2.40
2018-06-22T22:01:59.762Z,2.90
2018-06-22T22:04:27.093Z,2.37
2018-06-22T22:06:54.884Z,2.57
2018-06-22T22:09:22.357Z,2.83
2018-06-22T22:11:54.120Z,2.77
2018-06-22T22:14:21.932Z,3.00
2018-06-22T22:16:49.131Z,2.53
2018-06-22T22:19:16.728Z,2.80
2018-06-22T22:21:43.876Z,2.80
2018-06-22T22:24:11.032Z,3.30
2018-06-22T22:26:38.196Z,3.10
2018-06-22T22:29:05.379Z,3.70
2018-06-22T22:31:32.620Z,3.40
2018-06-22T22:34:00.310Z,3.10
2018-06-22T22:36:27.476Z,2.97
2018-06-22T22:38:54.615Z,3.47
2018-06-22T22:41:21.775Z,3.10
2018-06-22T22:43:48.896Z,4.40
2018-06-22T22:46:16.049Z,3.57
2018-06-22T22:48:43.167Z,3.87
2018-06-22T22:51:10.352Z,3.33
2018-06-22T22:53:37.489Z,3.23
2018-06-22T22:56:04.967Z,3.10
2018-06-22T22:58:32.098Z,2.70
2018-06-22T23:00:59.308Z,3.50
2018-06-22T23:03:26.531Z,3.60
2018-06-22T23:05:54.268Z,3.50
2018-06-22T23:08:21.514Z,3.50
2018-06-22T23:10:48.686Z,2.97
2018-06-22T23:13:16.037Z,3.80
2018-06-22T23:15:44.336Z,3.80
2018-06-22T23:18:12.553Z,3.30
2018-06-22T23:20:39.804Z,3.67
2018-06-22T23:23:12.599Z,3.70
2018-06-22T23:25:39.720Z,3.80
2018-06-22T23:28:07.065Z,3.50
2018-06-22T23:30:34.214Z,3.60
2018-06-22T23:33:01.340Z,3.70
2018-06-22T23:35:28.569Z,3.87
2018-06-22T23:37:56.252Z,3.67
2018-06-22T23:40:23.555Z,3.70
2018-06-22T23:42:50.737Z,3.93
2018-06-22T23:45:17.903Z,3.77
2018-06-22T23:47:45.092Z,3.40
2018-06-22T23:50:12.244Z,4.67
2018-06-22T23:52:39.380Z,4.20
2018-06-22T23:55:06.589Z,3.23
2018-06-22T23:57:33.678Z,3.13
